createdAt,value
2019-03-21T00:01:31.779Z,9.10
2019-03-21T00:04:08.109Z,9.03
2019-03-21T00:06:41.182Z,8.40
2019-03-21T00:09:17.041Z,8.10
2019-03-21T00:12:07.321Z,8.30
2019-03-21T00:14:53.661Z,9.93
2019-03-21T00:17:30.368Z,7.97
2019-03-21T00:20:04.139Z,8.00
2019-03-21T00:22:37.009Z,7.97
2019-03-21T00:25:11.745Z,9.23
2019-03-21T00:27:45.720Z,8.03
2019-03-21T00:30:21.406Z,8.83
2019-03-21T00:32:54.897Z,9.20
2019-03-21T00:35:28.513Z,8.97
2019-03-21T00:38:08.576Z,8.80
2019-03-21T00:40:44.154Z,8.63
2019-03-21T00:43:22.017Z,8.40
2019-03-21T00:45:54.917Z,8.97
2019-03-21T00:48:28.894Z,8.90
2019-03-21T00:51:00.208Z,8.23
2019-03-21T00:53:30.819Z,9.00
2019-03-21T00:56:01.124Z,8.83
2019-03-21T00:58:31.814Z,8.63
2019-03-21T01:01:02.318Z,9.83
2019-03-21T01:03:35.493Z,10.50
2019-03-21T01:06:07.959Z,9.47
2019-03-21T01:08:39.611Z,9.70
2019-03-21T01:11:09.903Z,9.50
2019-03-21T01:13:40.198Z,9.10
2019-03-21T01:16:12.707Z,10.77
2019-03-21T01:18:43.023Z,10.17
2019-03-21T01:21:13.396Z,9.37
2019-03-21T01:23:43.566Z,8.83
2019-03-21T01:26:13.811Z,8.30
2019-03-21T01:28:44.008Z,8.67
2019-03-21T01:31:14.215Z,8.00
2019-03-21T01:33:44.666Z,8.47
2019-03-21T01:36:15.094Z,8.70
2019-03-21T01:38:45.158Z,9.23
2019-03-21T01:41:15.369Z,7.03
2019-03-21T01:43:45.455Z,9.90
2019-03-21T01:46:15.910Z,10.83
2019-03-21T01:48:46.055Z,8.03
2019-03-21T01:51:16.162Z,8.87
2019-03-21T01:53:46.315Z,8.20
2019-03-21T01:56:17.431Z,7.87
2019-03-21T01:58:47.667Z,7.00
2019-03-21T02:01:17.777Z,7.27
2019-03-21T02:03:47.929Z,7.67
2019-03-21T02:06:17.962Z,8.00
2019-03-21T02:08:48.087Z,8.07
2019-03-21T02:11:18.162Z,8.53
2019-03-21T02:13:48.268Z,8.20
2019-03-21T02:16:18.376Z,8.23
2019-03-21T02:18:48.442Z,8.47
2019-03-21T02:21:18.494Z,7.50
2019-03-21T02:23:50.549Z,8.00
2019-03-21T02:26:20.578Z,8.17
2019-03-21T02:28:50.626Z,8.03
2019-03-21T02:31:20.787Z,7.73
2019-03-21T02:33:50.912Z,7.90
2019-03-21T02:36:21.077Z,7.10
2019-03-21T02:38:51.188Z,7.93
2019-03-21T02:41:21.376Z,7.90
2019-03-21T02:43:51.342Z,8.37
2019-03-21T02:46:21.482Z,8.37
2019-03-21T02:48:51.861Z,8.30
2019-03-21T02:51:22.101Z,8.60
2019-03-21T02:53:52.178Z,7.73
2019-03-21T02:56:23.312Z,7.87
2019-03-21T02:58:53.419Z,9.03
2019-03-21T03:01:23.540Z,8.53
2019-03-21T03:03:53.666Z,8.73
2019-03-21T03:06:23.859Z,7.50
2019-03-21T03:08:53.928Z,9.68
2019-03-21T03:11:24.155Z,8.83
2019-03-21T03:13:54.323Z,8.83
2019-03-21T03:16:24.528Z,8.65
2019-03-21T03:18:54.607Z,8.15
2019-03-21T03:21:25.035Z,10.40
2019-03-21T03:23:55.162Z,8.43
2019-03-21T03:26:25.283Z,8.80
2019-03-21T03:28:55.367Z,8.20
2019-03-21T03:31:25.855Z,8.48
2019-03-21T03:33:55.985Z,8.83
2019-03-21T03:36:26.144Z,8.75
2019-03-21T03:38:56.220Z,9.20
2019-03-21T03:41:26.420Z,8.75
2019-03-21T03:43:56.529Z,9.38
2019-03-21T03:46:26.557Z,9.33
2019-03-21T03:48:56.633Z,9.60
2019-03-21T03:51:26.748Z,9.70
2019-03-21T03:53:56.867Z,10.08
2019-03-21T03:56:26.938Z,9.50
2019-03-21T03:58:57.539Z,8.90
2019-03-21T04:01:27.582Z,9.18
2019-03-21T04:03:57.842Z,9.35
2019-03-21T04:06:27.892Z,9.05
2019-03-21T04:08:58.097Z,9.30
2019-03-21T04:11:28.305Z,10.00
2019-03-21T04:13:58.424Z,9.53
2019-03-21T04:16:28.591Z,9.20
2019-03-21T04:18:58.753Z,9.50
2019-03-21T04:21:28.835Z,10.43
2019-03-21T04:23:59.930Z,10.20
2019-03-21T04:26:31.214Z,10.20
2019-03-21T04:29:01.310Z,10.67
2019-03-21T04:31:31.411Z,8.63
2019-03-21T04:34:03.104Z,9.98
2019-03-21T04:36:33.287Z,9.60
2019-03-21T04:39:04.822Z,10.18
2019-03-21T04:41:34.935Z,10.30
2019-03-21T04:44:05.003Z,9.80
2019-03-21T04:46:35.208Z,9.83
2019-03-21T04:49:05.702Z,9.90
2019-03-21T04:51:35.783Z,9.28
2019-03-21T04:54:06.184Z,8.87
2019-03-21T04:56:36.378Z,8.40
2019-03-21T04:59:07.493Z,8.83
2019-03-21T05:01:37.886Z,9.60
2019-03-21T05:04:07.970Z,8.95
2019-03-21T05:06:38.088Z,9.38
2019-03-21T05:09:12.527Z,9.08
2019-03-21T05:11:43.962Z,8.75
2019-03-21T05:14:14.019Z,9.88
2019-03-21T05:16:44.127Z,10.70
2019-03-21T05:19:14.549Z,9.90
2019-03-21T05:21:44.818Z,10.07
2019-03-21T05:24:14.947Z,10.50
2019-03-21T05:26:45.097Z,10.97
2019-03-21T05:29:15.624Z,9.85
2019-03-21T05:31:45.772Z,10.13
2019-03-21T05:34:15.857Z,10.07
2019-03-21T05:36:46.315Z,11.28
2019-03-21T05:39:16.427Z,10.90
2019-03-21T05:41:46.558Z,10.18
2019-03-21T05:44:33.580Z,11.25
2019-03-21T05:47:03.843Z,10.20
2019-03-21T05:49:33.962Z,11.22
2019-03-21T05:52:04.272Z,10.70
2019-03-21T05:54:34.371Z,11.93
2019-03-21T05:57:04.626Z,14.43
2019-03-21T05:59:34.803Z,12.78
2019-03-21T06:02:04.904Z,12.40
2019-03-21T06:04:36.322Z,11.80
2019-03-21T06:07:19.234Z,10.57
2019-03-21T06:09:49.375Z,9.63
2019-03-21T06:12:19.599Z,8.77
2019-03-21T06:14:53.770Z,8.57
2019-03-21T06:17:24.914Z,8.20
2019-03-21T06:20:28.699Z,8.07
2019-03-21T06:23:36.307Z,8.30
2019-03-21T06:26:37.544Z,8.47
2019-03-21T06:29:08.145Z,8.37
2019-03-21T06:31:38.217Z,8.60
2019-03-21T06:34:08.431Z,7.97
2019-03-21T06:36:38.679Z,8.37
2019-03-21T06:39:09.723Z,7.67
2019-03-21T06:41:39.839Z,7.20
2019-03-21T06:44:10.075Z,6.40
2019-03-21T06:46:48.800Z,6.80
2019-03-21T06:49:12.850Z,7.27
2019-03-21T06:51:43.037Z,7.17
2019-03-21T06:54:13.281Z,6.33
2019-03-21T06:56:43.442Z,7.00
2019-03-21T06:59:13.978Z,6.37
2019-03-21T07:01:44.115Z,5.83
2019-03-21T07:04:14.534Z,7.47
2019-03-21T07:06:44.766Z,6.67
2019-03-21T07:09:15.964Z,6.40
2019-03-21T07:11:46.129Z,7.37
2019-03-21T07:14:16.491Z,7.10
2019-03-21T07:16:46.583Z,7.10
2019-03-21T07:19:16.856Z,7.17
2019-03-21T07:21:46.986Z,7.10
2019-03-21T07:24:18.394Z,6.23
2019-03-21T07:26:48.438Z,6.33
2019-03-21T07:29:18.724Z,6.20
2019-03-21T07:31:48.872Z,6.13
2019-03-21T07:34:19.182Z,5.80
2019-03-21T07:36:49.364Z,5.63
2019-03-21T07:39:20.303Z,5.40
2019-03-21T07:41:50.597Z,5.67
2019-03-21T07:44:20.943Z,4.97
2019-03-21T07:46:51.254Z,4.97
2019-03-21T07:49:22.171Z,4.20
2019-03-21T07:51:52.654Z,4.80
2019-03-21T07:54:23.392Z,4.17
2019-03-21T07:56:54.237Z,4.70
2019-03-21T07:59:24.454Z,5.10
2019-03-21T08:01:55.546Z,4.37
2019-03-21T08:04:25.686Z,3.80
2019-03-21T08:06:55.866Z,4.63
2019-03-21T08:09:25.984Z,4.40
2019-03-21T08:11:56.146Z,3.80
2019-03-21T08:14:26.235Z,4.70
2019-03-21T08:16:56.426Z,3.63
2019-03-21T08:19:26.612Z,3.80
2019-03-21T08:21:56.772Z,4.43
2019-03-21T08:24:26.954Z,4.20
2019-03-21T08:26:57.324Z,3.90
2019-03-21T08:29:27.428Z,4.60
2019-03-21T08:31:57.597Z,4.17
2019-03-21T08:34:27.923Z,4.03
2019-03-21T08:36:58.448Z,4.50
2019-03-21T08:39:28.935Z,4.20
2019-03-21T08:41:59.096Z,4.27
2019-03-21T08:44:29.200Z,4.33
2019-03-21T08:46:59.516Z,4.77
2019-03-21T08:49:29.640Z,4.57
2019-03-21T08:52:01.247Z,3.80
2019-03-21T08:54:31.418Z,4.43
2019-03-21T08:57:01.589Z,3.90
2019-03-21T08:59:32.469Z,4.90
2019-03-21T09:02:02.588Z,5.83
2019-03-21T09:04:33.127Z,4.80
2019-03-21T09:07:04.780Z,4.50
2019-03-21T09:09:35.135Z,4.50
2019-03-21T09:12:05.333Z,4.17
2019-03-21T09:14:35.481Z,4.23
2019-03-21T09:17:05.771Z,4.10
2019-03-21T09:19:36.300Z,4.80
2019-03-21T09:22:06.391Z,4.87
2019-03-21T09:24:36.863Z,4.00
2019-03-21T09:27:07.124Z,4.80
2019-03-21T09:29:37.220Z,4.63
2019-03-21T09:32:07.468Z,4.83
2019-03-21T09:34:37.629Z,5.13
2019-03-21T09:37:07.799Z,4.90
2019-03-21T09:39:38.086Z,4.97
2019-03-21T09:42:08.170Z,4.53
2019-03-21T09:44:38.325Z,5.70
2019-03-21T09:47:08.533Z,4.50
2019-03-21T09:49:38.849Z,4.37
2019-03-21T09:52:09.264Z,4.67
2019-03-21T09:54:39.479Z,5.07
2019-03-21T09:57:09.761Z,4.50
2019-03-21T09:59:41.306Z,4.80
2019-03-21T10:02:11.586Z,5.30
2019-03-21T10:04:41.906Z,5.73
2019-03-21T10:07:14.178Z,5.53
2019-03-21T10:09:44.548Z,5.23
2019-03-21T10:12:14.831Z,6.70
2019-03-21T10:14:45.134Z,5.57
2019-03-21T10:17:15.788Z,5.43
2019-03-21T10:19:48.444Z,5.70
2019-03-21T10:22:18.818Z,5.40
2019-03-21T10:24:49.734Z,5.50
2019-03-21T10:27:20.243Z,5.50
2019-03-21T10:29:50.735Z,5.33
2019-03-21T10:32:21.235Z,5.67
2019-03-21T10:34:52.614Z,5.40
2019-03-21T10:37:23.188Z,5.53
2019-03-21T10:39:53.715Z,5.90
2019-03-21T10:42:24.028Z,5.90
2019-03-21T10:44:54.943Z,5.17
2019-03-21T10:47:25.637Z,6.10
2019-03-21T10:49:57.156Z,5.60
2019-03-21T10:52:27.856Z,5.73
2019-03-21T10:54:58.354Z,5.10
2019-03-21T10:57:28.669Z,5.27
2019-03-21T11:00:01.623Z,5.27
2019-03-21T11:02:31.311Z,6.37
2019-03-21T11:05:01.921Z,4.43
2019-03-21T11:07:32.714Z,5.60
2019-03-21T11:10:03.616Z,4.47
2019-03-21T11:12:34.498Z,5.40
2019-03-21T11:15:05.238Z,6.73
2019-03-21T11:17:36.371Z,6.37
2019-03-21T11:20:07.075Z,6.20
2019-03-21T11:22:37.588Z,6.30
2019-03-21T11:25:08.309Z,6.50
2019-03-21T11:27:38.902Z,6.63
2019-03-21T11:30:16.007Z,6.57
2019-03-21T11:32:43.543Z,5.00
2019-03-21T11:35:13.789Z,6.90
2019-03-21T11:37:44.138Z,7.23
2019-03-21T11:40:14.478Z,7.23
2019-03-21T11:42:44.755Z,7.00
2019-03-21T11:45:15.574Z,6.57
2019-03-21T11:47:45.835Z,6.00
2019-03-21T11:50:16.710Z,5.87
2019-03-21T11:52:47.243Z,5.70
2019-03-21T11:55:19.250Z,6.17
2019-03-21T11:57:50.748Z,6.30
2019-03-21T12:00:21.264Z,6.70
2019-03-21T12:02:51.893Z,6.77
2019-03-21T12:05:22.680Z,7.87
2019-03-21T12:07:53.122Z,7.60
2019-03-21T12:10:24.044Z,8.27
2019-03-21T12:12:54.934Z,7.00
2019-03-21T12:15:25.573Z,8.00
2019-03-21T12:17:56.126Z,7.83
2019-03-21T12:20:35.144Z,7.00
2019-03-21T12:23:06.242Z,6.73
2019-03-21T12:25:36.531Z,6.93
2019-03-21T12:28:07.892Z,6.20
2019-03-21T12:30:40.003Z,7.17
2019-03-21T12:33:12.054Z,7.37
2019-03-21T12:35:42.272Z,7.47
2019-03-21T12:38:16.513Z,6.30
2019-03-21T12:40:47.031Z,7.83
2019-03-21T12:43:19.127Z,8.03
2019-03-21T12:45:49.571Z,7.03
2019-03-21T12:48:20.044Z,7.40
2019-03-21T12:50:50.280Z,7.00
2019-03-21T12:53:20.429Z,6.70
2019-03-21T12:55:50.711Z,7.50
2019-03-21T12:58:22.027Z,7.27
2019-03-21T13:00:52.456Z,7.93
2019-03-21T13:03:22.552Z,7.20
2019-03-21T13:05:53.076Z,6.63
2019-03-21T13:08:33.409Z,7.90
2019-03-21T13:10:55.273Z,6.60
2019-03-21T13:13:25.654Z,7.80
2019-03-21T13:15:56.065Z,7.87
2019-03-21T13:18:27.465Z,7.00
2019-03-21T13:20:58.845Z,7.13
2019-03-21T13:23:29.531Z,6.00
2019-03-21T13:25:59.825Z,8.07
2019-03-21T13:28:30.456Z,6.77
2019-03-21T13:31:02.864Z,6.23
2019-03-21T13:33:33.104Z,7.13
2019-03-21T13:36:03.552Z,6.60
2019-03-21T13:38:33.913Z,6.80
2019-03-21T13:41:04.233Z,7.60
2019-03-21T13:43:34.533Z,6.90
2019-03-21T13:46:04.979Z,6.23
2019-03-21T13:48:35.251Z,7.27
2019-03-21T13:51:05.670Z,7.27
2019-03-21T13:53:35.826Z,7.93
2019-03-21T13:56:06.518Z,6.20
2019-03-21T13:58:37.363Z,7.20
2019-03-21T14:01:07.484Z,7.70
2019-03-21T14:03:38.713Z,7.70
2019-03-21T14:06:10.120Z,8.07
2019-03-21T14:08:40.357Z,6.90
2019-03-21T14:11:10.687Z,6.80
2019-03-21T14:13:41.971Z,6.93
2019-03-21T14:16:12.664Z,6.73
2019-03-21T14:18:42.969Z,7.60
2019-03-21T14:21:13.334Z,6.67
2019-03-21T14:23:45.011Z,7.70
2019-03-21T14:26:15.394Z,7.57
2019-03-21T14:28:46.402Z,7.33
2019-03-21T14:31:18.412Z,6.77
2019-03-21T14:33:49.233Z,8.23
2019-03-21T14:36:19.447Z,7.07
2019-03-21T14:38:50.108Z,7.80
2019-03-21T14:41:20.415Z,7.80
2019-03-21T14:43:50.645Z,7.60
2019-03-21T14:46:20.848Z,8.97
2019-03-21T14:48:50.976Z,7.10
2019-03-21T14:51:21.216Z,8.23
2019-03-21T14:53:52.388Z,7.20
2019-03-21T14:56:23.322Z,7.97
2019-03-21T14:58:53.539Z,7.50
2019-03-21T15:01:23.865Z,7.20
2019-03-21T15:03:54.401Z,7.23
2019-03-21T15:06:25.187Z,7.60
2019-03-21T15:08:55.702Z,6.87
2019-03-21T15:11:25.956Z,7.30
2019-03-21T15:13:56.436Z,7.03
2019-03-21T15:16:26.679Z,7.57
2019-03-21T15:18:57.017Z,6.40
2019-03-21T15:21:29.593Z,7.03
2019-03-21T15:24:00.030Z,6.47
2019-03-21T15:26:31.035Z,7.43
2019-03-21T15:29:01.826Z,6.73
2019-03-21T15:31:32.536Z,7.10
2019-03-21T15:34:02.784Z,7.23
2019-03-21T15:36:32.892Z,6.83
2019-03-21T15:39:03.113Z,6.30
2019-03-21T15:41:34.571Z,6.57
2019-03-21T15:44:04.668Z,6.83
2019-03-21T15:46:35.023Z,6.50
2019-03-21T15:49:05.350Z,6.20
2019-03-21T15:51:36.768Z,6.33
2019-03-21T15:54:07.293Z,7.13
2019-03-21T15:56:37.560Z,5.70
2019-03-21T15:59:08.642Z,5.80
2019-03-21T16:01:39.259Z,7.00
2019-03-21T16:04:09.503Z,6.83
2019-03-21T16:06:40.051Z,5.80
2019-03-21T16:09:10.439Z,7.00
2019-03-21T16:11:40.804Z,7.03
2019-03-21T16:14:10.984Z,6.20
2019-03-21T16:16:41.243Z,7.43
2019-03-21T16:19:11.466Z,6.43
2019-03-21T16:21:41.641Z,6.10
2019-03-21T16:24:11.940Z,7.20
2019-03-21T16:26:42.186Z,6.63
2019-03-21T16:29:12.497Z,6.93
2019-03-21T16:31:42.927Z,6.83
2019-03-21T16:34:13.169Z,6.80
2019-03-21T16:36:46.192Z,6.93
2019-03-21T16:39:16.932Z,6.87
2019-03-21T16:41:51.551Z,6.90
2019-03-21T16:44:22.471Z,7.47
2019-03-21T16:46:52.811Z,6.80
2019-03-21T16:49:22.985Z,7.60
2019-03-21T16:51:53.148Z,8.33
2019-03-21T16:54:23.577Z,8.43
2019-03-21T16:56:53.878Z,7.60
2019-03-21T16:59:24.230Z,7.57
2019-03-21T17:01:54.846Z,7.53
2019-03-21T17:04:25.093Z,7.60
2019-03-21T17:06:55.310Z,6.40
2019-03-21T17:09:26.900Z,7.73
2019-03-21T17:11:57.187Z,6.80
2019-03-21T17:14:28.075Z,7.93
2019-03-21T17:16:58.341Z,7.07
2019-03-21T17:19:28.571Z,7.77
2019-03-21T17:21:58.779Z,7.43
2019-03-21T17:24:29.929Z,8.53
2019-03-21T17:27:00.355Z,6.60
2019-03-21T17:29:30.514Z,7.70
2019-03-21T17:32:00.675Z,7.73
2019-03-21T17:34:31.124Z,7.73
2019-03-21T17:37:01.408Z,7.80
2019-03-21T17:39:31.868Z,7.90
2019-03-21T17:42:02.020Z,7.60
2019-03-21T17:44:32.462Z,7.33
2019-03-21T17:47:02.615Z,7.60
2019-03-21T17:49:33.067Z,7.83
2019-03-21T17:52:03.224Z,7.80
2019-03-21T17:54:41.517Z,7.50
2019-03-21T17:57:05.848Z,7.30
2019-03-21T17:59:36.219Z,7.73
2019-03-21T18:02:07.141Z,8.40
2019-03-21T18:04:38.026Z,7.80
2019-03-21T18:07:08.203Z,7.90
2019-03-21T18:09:38.370Z,7.97
2019-03-21T18:12:08.507Z,8.33
2019-03-21T18:14:38.980Z,8.17
2019-03-21T18:17:09.368Z,8.27
2019-03-21T18:19:39.565Z,7.80
2019-03-21T18:22:09.838Z,7.40
2019-03-21T18:24:53.057Z,9.27
2019-03-21T18:27:12.950Z,7.50
2019-03-21T18:29:43.078Z,8.40
2019-03-21T18:32:13.294Z,10.10
2019-03-21T18:34:43.684Z,8.57
2019-03-21T18:37:13.972Z,9.13
2019-03-21T18:39:44.649Z,9.10
2019-03-21T18:42:15.033Z,8.90
2019-03-21T18:44:45.223Z,8.27
2019-03-21T18:47:15.511Z,8.57
2019-03-21T18:49:45.810Z,8.20
2019-03-21T18:52:15.975Z,8.47
2019-03-21T18:54:46.206Z,8.33
2019-03-21T18:57:16.512Z,8.70
2019-03-21T18:59:46.762Z,8.40
2019-03-21T19:02:17.083Z,7.87
2019-03-21T19:04:48.386Z,9.70
2019-03-21T19:07:18.649Z,8.87
2019-03-21T19:09:49.281Z,8.77
2019-03-21T19:12:19.567Z,9.37
2019-03-21T19:14:49.788Z,8.03
2019-03-21T19:17:20.042Z,7.67
2019-03-21T19:19:50.240Z,8.73
2019-03-21T19:22:20.451Z,8.67
2019-03-21T19:24:50.708Z,9.03
2019-03-21T19:27:20.876Z,9.17
2019-03-21T19:29:51.076Z,9.03
2019-03-21T19:32:21.295Z,8.70
2019-03-21T19:34:51.519Z,9.30
2019-03-21T19:37:21.792Z,9.30
2019-03-21T19:42:27.394Z,8.93
2019-03-21T19:44:57.619Z,9.63
2019-03-21T19:47:30.309Z,9.47
2019-03-21T19:49:59.672Z,9.40
2019-03-21T19:52:29.888Z,8.60
2019-03-21T19:57:59.362Z,9.13
2019-03-21T20:00:34.548Z,8.40
2019-03-21T20:03:06.869Z,7.90
2019-03-21T20:05:37.314Z,8.10
2019-03-21T20:08:18.824Z,8.63
2019-03-21T20:10:52.430Z,7.30
2019-03-21T20:13:33.158Z,8.23
2019-03-21T20:16:09.972Z,9.70
2019-03-21T20:18:43.320Z,8.37
2019-03-21T20:21:16.395Z,9.73
2019-03-21T20:33:55.177Z,9.07
2019-03-21T20:36:29.149Z,9.40
2019-03-21T20:39:02.447Z,10.07
2019-03-21T20:41:36.565Z,9.90
2019-03-21T20:44:15.366Z,10.63
2019-03-21T20:47:16.245Z,8.70
2019-03-21T20:49:46.873Z,9.87
2019-03-21T20:52:17.920Z,10.47
2019-03-21T20:54:49.512Z,8.70
2019-03-21T20:57:19.878Z,8.63
2019-03-21T20:59:50.171Z,8.37
2019-03-21T21:02:20.550Z,9.57
2019-03-21T21:04:51.361Z,8.67
2019-03-21T21:07:22.629Z,8.40
2019-03-21T21:09:53.756Z,9.13
2019-03-21T21:12:27.073Z,9.43
2019-03-21T21:14:58.755Z,8.87
2019-03-21T21:18:15.529Z,8.90
2019-03-21T21:20:45.822Z,8.63
2019-03-21T21:23:16.127Z,8.50
2019-03-21T21:25:47.760Z,9.23
2019-03-21T21:28:17.947Z,9.40
2019-03-21T21:30:48.174Z,8.63
2019-03-21T21:33:18.416Z,9.33
2019-03-21T21:35:48.544Z,10.10
2019-03-21T21:38:18.715Z,9.77
2019-03-21T21:40:49.431Z,8.57
2019-03-21T21:43:19.618Z,8.80
2019-03-21T21:45:50.912Z,9.20
2019-03-21T21:48:21.220Z,9.50
2019-03-21T21:50:51.522Z,9.23
2019-03-21T21:53:21.742Z,8.80
2019-03-21T21:55:51.903Z,9.80
2019-03-21T21:58:22.090Z,10.40
2019-03-21T22:00:53.151Z,8.87
2019-03-21T22:03:23.463Z,9.27
2019-03-21T22:05:53.712Z,9.50
2019-03-21T22:08:24.227Z,10.40
2019-03-21T22:10:54.467Z,9.90
2019-03-21T22:13:24.716Z,11.27
2019-03-21T22:15:54.909Z,10.20
2019-03-21T22:18:25.717Z,10.50
2019-03-21T22:20:55.931Z,10.33
2019-03-21T22:23:26.132Z,8.97
2019-03-21T22:25:56.370Z,10.30
2019-03-21T22:28:26.807Z,9.07
2019-03-21T22:30:57.133Z,9.57
2019-03-21T22:33:29.462Z,9.60
2019-03-21T22:35:59.659Z,10.07
2019-03-21T22:38:30.536Z,9.63
2019-03-21T22:41:00.815Z,8.60
2019-03-21T22:43:31.780Z,9.23
2019-03-21T22:46:01.896Z,9.97
2019-03-21T22:48:33.863Z,9.70
2019-03-21T22:51:04.084Z,9.80
2019-03-21T22:53:35.261Z,10.43
2019-03-21T22:56:05.549Z,9.17
2019-03-21T22:58:36.707Z,10.37
2019-03-21T23:01:07.153Z,9.00
2019-03-21T23:03:40.642Z,9.40
2019-03-21T23:06:10.796Z,8.93
2019-03-21T23:08:40.996Z,9.67
2019-03-21T23:11:11.110Z,9.50
2019-03-21T23:13:41.908Z,10.47
2019-03-21T23:16:12.091Z,10.47
2019-03-21T23:18:42.950Z,10.57
2019-03-21T23:21:13.130Z,11.33
2019-03-21T23:23:43.303Z,10.03
2019-03-21T23:26:14.095Z,10.57
2019-03-21T23:28:44.401Z,11.27
2019-03-21T23:31:15.590Z,9.63
2019-03-21T23:33:45.835Z,10.23
2019-03-21T23:36:15.951Z,9.70
2019-03-21T23:38:46.834Z,9.90
2019-03-21T23:41:16.955Z,10.07
2019-03-21T23:43:47.851Z,10.63
2019-03-21T23:46:18.063Z,10.37
2019-03-21T23:48:48.967Z,11.30
2019-03-21T23:51:19.223Z,9.50
2019-03-21T23:53:50.050Z,10.33
2019-03-21T23:56:20.227Z,9.00
2019-03-21T23:58:51.003Z,10.87
